sensor_id;sensor_type;location;lat;lon;timestamp;P1;P2;P0
45440;PMS5003;31189;38.790;-77.084;2022-08-01T00:00:21;19;19;
45440;PMS5003;31189;38.790;-77.084;2022-08-01T00:02:49;22;20;
45440;PMS5003;31189;38.790;-77.084;2022-08-01T00:05:17;20;18;
45440;PMS5003;31189;38.790;-77.084;2022-08-01T00:07:45;21;18;
45440;PMS5003;31189;38.790;-77.084;2022-08-01T00:10:13;20;18;
45440;PMS5003;31189;38.790;-77.084;2022-08-01T00:12:43;23;18;
45440;PMS5003;31189;38.790;-77.084;2022-08-01T00:15:13;20;20;
45440;PMS5003;31189;38.790;-77.084;2022-08-01T00:17:42;20;19;
45440;PMS5003;31189;38.790;-77.084;2022-08-01T00:20:11;26;20;
45440;PMS5003;31189;38.790;-77.084;2022-08-01T00:22:40;16;15;
45440;PMS5003;31189;38.790;-77.084;2022-08-01T00:25:08;22;17;
45440;PMS5003;31189;38.790;-77.084;2022-08-01T00:27:36;19;18;
45440;PMS5003;31189;38.790;-77.084;2022-08-01T00:30:05;18;17;
45440;PMS5003;31189;38.790;-77.084;2022-08-01T00:32:34;18;18;
45440;PMS5003;31189;38.790;-77.084;2022-08-01T00:35:02;17;16;
45440;PMS5003;31189;38.790;-77.084;2022-08-01T00:37:30;20;19;
45440;PMS5003;31189;38.790;-77.084;2022-08-01T00:39:57;14;14;
45440;PMS5003;31189;38.790;-77.084;2022-08-01T00:42:25;16;16;
45440;PMS5003;31189;38.790;-77.084;2022-08-01T00:44:53;14;14;
45440;PMS5003;31189;38.790;-77.084;2022-08-01T00:47:21;17;17;
45440;PMS5003;31189;38.790;-77.084;2022-08-01T00:49:49;17;16;
45440;PMS5003;31189;38.790;-77.084;2022-08-01T00:52:17;16;13;
45440;PMS5003;31189;38.790;-77.084;2022-08-01T00:54:46;16;16;
45440;PMS5003;31189;38.790;-77.084;2022-08-01T00:57:14;16;16;
45440;PMS5003;31189;38.790;-77.084;2022-08-01T00:59:43;14;14;
45440;PMS5003;31189;38.790;-77.084;2022-08-01T01:02:11;19;14;
45440;PMS5003;31189;38.790;-77.084;2022-08-01T01:04:39;15;13;
45440;PMS5003;31189;38.790;-77.084;2022-08-01T01:07:09;19;16;
45440;PMS5003;31189;38.790;-77.084;2022-08-01T01:09:44;16;15;
45440;PMS5003;31189;38.790;-77.084;2022-08-01T01:12:19;15;15;
45440;PMS5003;31189;38.790;-77.084;2022-08-01T01:14:54;15;15;
45440;PMS5003;31189;38.790;-77.084;2022-08-01T01:17:28;17;14;
45440;PMS5003;31189;38.790;-77.084;2022-08-01T01:20:03;15;14;
45440;PMS5003;31189;38.790;-77.084;2022-08-01T01:22:36;16;14;
45440;PMS5003;31189;38.790;-77.084;2022-08-01T01:25:24;15;14;
45440;PMS5003;31189;38.790;-77.084;2022-08-01T01:28:05;19;17;
45440;PMS5003;31189;38.790;-77.084;2022-08-01T01:30:42;16;15;
45440;PMS5003;31189;38.790;-77.084;2022-08-01T01:33:12;14;14;
45440;PMS5003;31189;38.790;-77.084;2022-08-01T01:35:42;15;15;
45440;PMS5003;31189;38.790;-77.084;2022-08-01T01:38:16;17;13;
45440;PMS5003;31189;38.790;-77.084;2022-08-01T01:40:49;13;11;
45440;PMS5003;31189;38.790;-77.084;2022-08-01T01:43:18;15;15;
45440;PMS5003;31189;38.790;-77.084;2022-08-01T01:45:48;14;14;
45440;PMS5003;31189;38.790;-77.084;2022-08-01T01:48:17;12;12;
45440;PMS5003;31189;38.790;-77.084;2022-08-01T01:50:47;17;17;
45440;PMS5003;31189;38.790;-77.084;2022-08-01T01:53:19;13;13;
45440;PMS5003;31189;38.790;-77.084;2022-08-01T01:55:49;17;14;
45440;PMS5003;31189;38.790;-77.084;2022-08-01T01:58:19;14;12;
45440;PMS5003;31189;38.790;-77.084;2022-08-01T02:00:48;14;13;
45440;PMS5003;31189;38.790;-77.084;2022-08-01T02:03:18;13;13;
45440;PMS5003;31189;38.790;-77.084;2022-08-01T02:05:47;17;14;
45440;PMS5003;31189;38.790;-77.084;2022-08-01T02:08:18;16;14;
45440;PMS5003;31189;38.790;-77.084;2022-08-01T02:10:46;14;14;
45440;PMS5003;31189;38.790;-77.084;2022-08-01T02:13:17;14;14;
45440;PMS5003;31189;38.790;-77.084;2022-08-01T02:15:45;14;12;
45440;PMS5003;31189;38.790;-77.084;2022-08-01T02:18:13;14;14;
45440;PMS5003;31189;38.790;-77.084;2022-08-01T02:20:41;16;14;
45440;PMS5003;31189;38.790;-77.084;2022-08-01T02:23:11;11;11;
45440;PMS5003;31189;38.790;-77.084;2022-08-01T02:25:41;11;11;
45440;PMS5003;31189;38.790;-77.084;2022-08-01T02:28:13;12;12;
45440;PMS5003;31189;38.790;-77.084;2022-08-01T02:30:47;16;14;
45440;PMS5003;31189;38.790;-77.084;2022-08-01T02:33:17;16;15;
45440;PMS5003;31189;38.790;-77.084;2022-08-01T02:35:47;14;14;
45440;PMS5003;31189;38.790;-77.084;2022-08-01T02:38:18;18;17;
45440;PMS5003;31189;38.790;-77.084;2022-08-01T02:40:50;14;13;
45440;PMS5003;31189;38.790;-77.084;2022-08-01T02:43:21;16;15;
45440;PMS5003;31189;38.790;-77.084;2022-08-01T02:45:54;12;11;
45440;PMS5003;31189;38.790;-77.084;2022-08-01T02:48:27;13;13;
45440;PMS5003;31189;38.790;-77.084;2022-08-01T02:50:58;13;12;
45440;PMS5003;31189;38.790;-77.084;2022-08-01T02:53:28;14;13;
45440;PMS5003;31189;38.790;-77.084;2022-08-01T02:55:59;14;14;
45440;PMS5003;31189;38.790;-77.084;2022-08-01T02:58:29;15;14;
45440;PMS5003;31189;38.790;-77.084;2022-08-01T03:00:58;16;14;
45440;PMS5003;31189;38.790;-77.084;2022-08-01T03:03:26;13;12;
45440;PMS5003;31189;38.790;-77.084;2022-08-01T03:05:55;14;12;
45440;PMS5003;31189;38.790;-77.084;2022-08-01T03:08:24;18;15;
45440;PMS5003;31189;38.790;-77.084;2022-08-01T03:10:54;15;14;
45440;PMS5003;31189;38.790;-77.084;2022-08-01T03:13:23;13;13;
45440;PMS5003;31189;38.790;-77.084;2022-08-01T03:15:54;13;13;
45440;PMS5003;31189;38.790;-77.084;2022-08-01T03:18:23;13;13;
45440;PMS5003;31189;38.790;-77.084;2022-08-01T03:20:52;15;14;
45440;PMS5003;31189;38.790;-77.084;2022-08-01T03:23:23;13;13;
45440;PMS5003;31189;38.790;-77.084;2022-08-01T03:25:52;14;12;
45440;PMS5003;31189;38.790;-77.084;2022-08-01T03:28:21;15;13;
45440;PMS5003;31189;38.790;-77.084;2022-08-01T03:30:50;16;15;
45440;PMS5003;31189;38.790;-77.084;2022-08-01T03:33:19;14;14;
45440;PMS5003;31189;38.790;-77.084;2022-08-01T03:35:48;14;12;
45440;PMS5003;31189;38.790;-77.084;2022-08-01T03:38:21;14;13;
45440;PMS5003;31189;38.790;-77.084;2022-08-01T03:40:51;16;14;
45440;PMS5003;31189;38.790;-77.084;2022-08-01T03:43:24;15;15;
45440;PMS5003;31189;38.790;-77.084;2022-08-01T03:45:58;16;15;
45440;PMS5003;31189;38.790;-77.084;2022-08-01T03:48:31;13;13;
45440;PMS5003;31189;38.790;-77.084;2022-08-01T03:51:02;19;16;
45440;PMS5003;31189;38.790;-77.084;2022-08-01T03:53:32;14;13;
45440;PMS5003;31189;38.790;-77.084;2022-08-01T03:56:03;14;14;
45440;PMS5003;31189;38.790;-77.084;2022-08-01T03:58:33;15;15;
45440;PMS5003;31189;38.790;-77.084;2022-08-01T04:01:02;15;14;
45440;PMS5003;31189;38.790;-77.084;2022-08-01T04:03:32;16;13;
45440;PMS5003;31189;38.790;-77.084;2022-08-01T04:06:03;16;14;
45440;PMS5003;31189;38.790;-77.084;2022-08-01T04:08:34;13;12;
45440;PMS5003;31189;38.790;-77.084;2022-08-01T04:11:03;16;14;
45440;PMS5003;31189;38.790;-77.084;2022-08-01T04:13:31;14;14;
45440;PMS5003;31189;38.790;-77.084;2022-08-01T04:15:59;12;10;
45440;PMS5003;31189;38.790;-77.084;2022-08-01T04:18:27;13;13;
45440;PMS5003;31189;38.790;-77.084;2022-08-01T04:20:55;14;12;
45440;PMS5003;31189;38.790;-77.084;2022-08-01T04:23:24;13;13;
45440;PMS5003;31189;38.790;-77.084;2022-08-01T04:25:54;15;15;
45440;PMS5003;31189;38.790;-77.084;2022-08-01T04:28:23;18;15;
45440;PMS5003;31189;38.790;-77.084;2022-08-01T04:30:53;16;14;
45440;PMS5003;31189;38.790;-77.084;2022-08-01T04:33:22;16;13;
45440;PMS5003;31189;38.790;-77.084;2022-08-01T04:35:52;14;14;
45440;PMS5003;31189;38.790;-77.084;2022-08-01T04:38:23;15;13;
45440;PMS5003;31189;38.790;-77.084;2022-08-01T04:40:55;12;12;
45440;PMS5003;31189;38.790;-77.084;2022-08-01T04:43:24;13;13;
45440;PMS5003;31189;38.790;-77.084;2022-08-01T04:45:52;14;12;
45440;PMS5003;31189;38.790;-77.084;2022-08-01T04:48:21;17;15;
45440;PMS5003;31189;38.790;-77.084;2022-08-01T04:50:51;21;14;
45440;PMS5003;31189;38.790;-77.084;2022-08-01T04:53:19;12;12;
45440;PMS5003;31189;38.790;-77.084;2022-08-01T04:55:47;16;14;
45440;PMS5003;31189;38.790;-77.084;2022-08-01T04:58:16;20;14;
45440;PMS5003;31189;38.790;-77.084;2022-08-01T05:00:44;13;12;
45440;PMS5003;31189;38.790;-77.084;2022-08-01T05:03:12;15;14;
45440;PMS5003;31189;38.790;-77.084;2022-08-01T05:05:40;14;13;
45440;PMS5003;31189;38.790;-77.084;2022-08-01T05:08:08;14;14;
45440;PMS5003;31189;38.790;-77.084;2022-08-01T05:10:36;14;14;
45440;PMS5003;31189;38.790;-77.084;2022-08-01T05:13:03;14;14;
45440;PMS5003;31189;38.790;-77.084;2022-08-01T05:15:31;19;14;
45440;PMS5003;31189;38.790;-77.084;2022-08-01T05:17:59;14;14;
45440;PMS5003;31189;38.790;-77.084;2022-08-01T05:20:28;13;13;
45440;PMS5003;31189;38.790;-77.084;2022-08-01T05:22:55;12;12;
45440;PMS5003;31189;38.790;-77.084;2022-08-01T05:25:23;15;15;
45440;PMS5003;31189;38.790;-77.084;2022-08-01T05:27:51;13;12;
45440;PMS5003;31189;38.790;-77.084;2022-08-01T05:30:19;16;14;
45440;PMS5003;31189;38.790;-77.084;2022-08-01T05:32:47;13;13;
45440;PMS5003;31189;38.790;-77.084;2022-08-01T05:35:15;14;14;
45440;PMS5003;31189;38.790;-77.084;2022-08-01T05:37:43;14;11;
45440;PMS5003;31189;38.790;-77.084;2022-08-01T05:40:11;16;14;
45440;PMS5003;31189;38.790;-77.084;2022-08-01T05:42:40;13;13;
45440;PMS5003;31189;38.790;-77.084;2022-08-01T05:45:13;14;14;
45440;PMS5003;31189;38.790;-77.084;2022-08-01T05:47:41;24;12;
45440;PMS5003;31189;38.790;-77.084;2022-08-01T05:50:09;15;15;
45440;PMS5003;31189;38.790;-77.084;2022-08-01T05:52:38;11;11;
45440;PMS5003;31189;38.790;-77.084;2022-08-01T05:55:06;14;12;
45440;PMS5003;31189;38.790;-77.084;2022-08-01T05:57:35;15;12;
45440;PMS5003;31189;38.790;-77.084;2022-08-01T06:00:03;12;12;
45440;PMS5003;31189;38.790;-77.084;2022-08-01T06:02:32;14;14;
45440;PMS5003;31189;38.790;-77.084;2022-08-01T06:05:00;11;11;
45440;PMS5003;31189;38.790;-77.084;2022-08-01T06:07:29;15;14;
45440;PMS5003;31189;38.790;-77.084;2022-08-01T06:09:57;15;14;
45440;PMS5003;31189;38.790;-77.084;2022-08-01T06:12:24;15;15;
45440;PMS5003;31189;38.790;-77.084;2022-08-01T06:14:52;14;13;
45440;PMS5003;31189;38.790;-77.084;2022-08-01T06:17:20;14;14;
45440;PMS5003;31189;38.790;-77.084;2022-08-01T06:19:48;13;13;
45440;PMS5003;31189;38.790;-77.084;2022-08-01T06:22:15;14;13;
45440;PMS5003;31189;38.790;-77.084;2022-08-01T06:24:43;13;13;
45440;PMS5003;31189;38.790;-77.084;2022-08-01T06:27:10;16;15;
45440;PMS5003;31189;38.790;-77.084;2022-08-01T06:29:38;15;15;
45440;PMS5003;31189;38.790;-77.084;2022-08-01T06:32:07;15;13;
45440;PMS5003;31189;38.790;-77.084;2022-08-01T06:34:35;14;14;
45440;PMS5003;31189;38.790;-77.084;2022-08-01T06:37:02;13;13;
45440;PMS5003;31189;38.790;-77.084;2022-08-01T06:39:29;12;12;
45440;PMS5003;31189;38.790;-77.084;2022-08-01T06:41:57;14;14;
45440;PMS5003;31189;38.790;-77.084;2022-08-01T06:44:24;15;14;
45440;PMS5003;31189;38.790;-77.084;2022-08-01T06:46:52;13;13;
45440;PMS5003;31189;38.790;-77.084;2022-08-01T06:49:20;13;12;
45440;PMS5003;31189;38.790;-77.084;2022-08-01T06:51:49;12;12;
45440;PMS5003;31189;38.790;-77.084;2022-08-01T06:54:17;16;15;
45440;PMS5003;31189;38.790;-77.084;2022-08-01T06:56:45;14;13;
45440;PMS5003;31189;38.790;-77.084;2022-08-01T06:59:13;14;14;
45440;PMS5003;31189;38.790;-77.084;2022-08-01T07:01:41;15;13;
45440;PMS5003;31189;38.790;-77.084;2022-08-01T07:04:10;15;12;
45440;PMS5003;31189;38.790;-77.084;2022-08-01T07:06:38;14;14;
45440;PMS5003;31189;38.790;-77.084;2022-08-01T07:09:06;13;13;
45440;PMS5003;31189;38.790;-77.084;2022-08-01T07:11:34;19;15;
45440;PMS5003;31189;38.790;-77.084;2022-08-01T07:14:02;15;12;
45440;PMS5003;31189;38.790;-77.084;2022-08-01T07:16:30;18;14;
45440;PMS5003;31189;38.790;-77.084;2022-08-01T07:18:58;14;13;
45440;PMS5003;31189;38.790;-77.084;2022-08-01T07:21:25;20;13;
45440;PMS5003;31189;38.790;-77.084;2022-08-01T07:23:53;13;13;
45440;PMS5003;31189;38.790;-77.084;2022-08-01T07:26:21;26;13;
45440;PMS5003;31189;38.790;-77.084;2022-08-01T07:28:48;13;12;
45440;PMS5003;31189;38.790;-77.084;2022-08-01T07:31:16;15;14;
45440;PMS5003;31189;38.790;-77.084;2022-08-01T07:33:44;13;13;
45440;PMS5003;31189;38.790;-77.084;2022-08-01T07:36:12;11;11;
45440;PMS5003;31189;38.790;-77.084;2022-08-01T07:38:40;15;13;
45440;PMS5003;31189;38.790;-77.084;2022-08-01T07:41:08;17;16;
45440;PMS5003;31189;38.790;-77.084;2022-08-01T07:43:36;14;13;
45440;PMS5003;31189;38.790;-77.084;2022-08-01T07:46:04;15;13;
45440;PMS5003;31189;38.790;-77.084;2022-08-01T07:48:33;15;13;
45440;PMS5003;31189;38.790;-77.084;2022-08-01T07:51:01;13;13;
45440;PMS5003;31189;38.790;-77.084;2022-08-01T07:53:29;14;12;
45440;PMS5003;31189;38.790;-77.084;2022-08-01T07:55:57;14;12;
45440;PMS5003;31189;38.790;-77.084;2022-08-01T07:58:25;14;14;
45440;PMS5003;31189;38.790;-77.084;2022-08-01T08:00:53;15;12;
45440;PMS5003;31189;38.790;-77.084;2022-08-01T08:03:20;14;14;
45440;PMS5003;31189;38.790;-77.084;2022-08-01T08:05:48;12;11;
45440;PMS5003;31189;38.790;-77.084;2022-08-01T08:08:16;14;14;
45440;PMS5003;31189;38.790;-77.084;2022-08-01T08:10:44;15;14;
45440;PMS5003;31189;38.790;-77.084;2022-08-01T08:13:12;13;12;
45440;PMS5003;31189;38.790;-77.084;2022-08-01T08:15:40;13;13;
45440;PMS5003;31189;38.790;-77.084;2022-08-01T08:18:08;15;14;
45440;PMS5003;31189;38.790;-77.084;2022-08-01T08:20:36;13;13;
45440;PMS5003;31189;38.790;-77.084;2022-08-01T08:23:04;12;12;
45440;PMS5003;31189;38.790;-77.084;2022-08-01T08:25:32;16;13;
45440;PMS5003;31189;38.790;-77.084;2022-08-01T08:28:00;16;15;
45440;PMS5003;31189;38.790;-77.084;2022-08-01T08:30:29;16;15;
45440;PMS5003;31189;38.790;-77.084;2022-08-01T08:32:57;14;12;
45440;PMS5003;31189;38.790;-77.084;2022-08-01T08:35:25;14;12;
45440;PMS5003;31189;38.790;-77.084;2022-08-01T08:37:53;12;12;
45440;PMS5003;31189;38.790;-77.084;2022-08-01T08:40:21;12;12;
45440;PMS5003;31189;38.790;-77.084;2022-08-01T08:42:55;13;12;
45440;PMS5003;31189;38.790;-77.084;2022-08-01T08:45:25;14;14;
45440;PMS5003;31189;38.790;-77.084;2022-08-01T08:47:53;13;12;
45440;PMS5003;31189;38.790;-77.084;2022-08-01T08:50:22;15;13;
45440;PMS5003;31189;38.790;-77.084;2022-08-01T08:52:52;16;15;
45440;PMS5003;31189;38.790;-77.084;2022-08-01T08:55:20;15;14;
45440;PMS5003;31189;38.790;-77.084;2022-08-01T08:57:50;12;11;
45440;PMS5003;31189;38.790;-77.084;2022-08-01T09:00:19;14;13;
45440;PMS5003;31189;38.790;-77.084;2022-08-01T09:02:47;13;13;
45440;PMS5003;31189;38.790;-77.084;2022-08-01T09:05:15;14;14;
45440;PMS5003;31189;38.790;-77.084;2022-08-01T09:07:43;13;13;
45440;PMS5003;31189;38.790;-77.084;2022-08-01T09:10:11;13;13;
45440;PMS5003;31189;38.790;-77.084;2022-08-01T09:12:39;17;15;
45440;PMS5003;31189;38.790;-77.084;2022-08-01T09:15:37;19;14;
45440;PMS5003;31189;38.790;-77.084;2022-08-01T09:18:10;17;16;
45440;PMS5003;31189;38.790;-77.084;2022-08-01T09:21:06;15;15;
45440;PMS5003;31189;38.790;-77.084;2022-08-01T09:23:37;14;13;
45440;PMS5003;31189;38.790;-77.084;2022-08-01T09:26:06;26;15;
45440;PMS5003;31189;38.790;-77.084;2022-08-01T09:28:36;15;14;
45440;PMS5003;31189;38.790;-77.084;2022-08-01T09:31:07;15;13;
45440;PMS5003;31189;38.790;-77.084;2022-08-01T09:33:52;16;15;
45440;PMS5003;31189;38.790;-77.084;2022-08-01T09:36:22;16;13;
45440;PMS5003;31189;38.790;-77.084;2022-08-01T09:38:51;13;12;
45440;PMS5003;31189;38.790;-77.084;2022-08-01T09:41:28;14;14;
45440;PMS5003;31189;38.790;-77.084;2022-08-01T09:43:57;17;14;
45440;PMS5003;31189;38.790;-77.084;2022-08-01T09:46:25;15;14;
45440;PMS5003;31189;38.790;-77.084;2022-08-01T09:49:00;15;14;
45440;PMS5003;31189;38.790;-77.084;2022-08-01T09:51:31;20;18;
45440;PMS5003;31189;38.790;-77.084;2022-08-01T09:54:01;18;14;
45440;PMS5003;31189;38.790;-77.084;2022-08-01T09:56:36;16;16;
45440;PMS5003;31189;38.790;-77.084;2022-08-01T09:59:05;15;15;
45440;PMS5003;31189;38.790;-77.084;2022-08-01T10:01:49;18;15;
45440;PMS5003;31189;38.790;-77.084;2022-08-01T10:04:17;18;17;
45440;PMS5003;31189;38.790;-77.084;2022-08-01T10:06:47;15;15;
45440;PMS5003;31189;38.790;-77.084;2022-08-01T10:09:26;17;16;
45440;PMS5003;31189;38.790;-77.084;2022-08-01T10:11:55;14;13;
45440;PMS5003;31189;38.790;-77.084;2022-08-01T10:14:26;21;16;
45440;PMS5003;31189;38.790;-77.084;2022-08-01T10:16:56;17;14;
45440;PMS5003;31189;38.790;-77.084;2022-08-01T10:19:25;17;17;
45440;PMS5003;31189;38.790;-77.084;2022-08-01T10:21:55;15;14;
45440;PMS5003;31189;38.790;-77.084;2022-08-01T10:24:25;13;13;
45440;PMS5003;31189;38.790;-77.084;2022-08-01T10:26:56;19;18;
45440;PMS5003;31189;38.790;-77.084;2022-08-01T10:29:26;18;14;
45440;PMS5003;31189;38.790;-77.084;2022-08-01T10:31:58;17;15;
45440;PMS5003;31189;38.790;-77.084;2022-08-01T10:34:26;27;12;
45440;PMS5003;31189;38.790;-77.084;2022-08-01T10:36:56;17;15;
45440;PMS5003;31189;38.790;-77.084;2022-08-01T10:39:24;13;13;
45440;PMS5003;31189;38.790;-77.084;2022-08-01T10:41:53;17;15;
45440;PMS5003;31189;38.790;-77.084;2022-08-01T10:44:21;19;15;
45440;PMS5003;31189;38.790;-77.084;2022-08-01T10:46:52;17;13;
45440;PMS5003;31189;38.790;-77.084;2022-08-01T10:49:25;16;15;
45440;PMS5003;31189;38.790;-77.084;2022-08-01T10:51:55;13;13;
45440;PMS5003;31189;38.790;-77.084;2022-08-01T10:54:24;21;14;
45440;PMS5003;31189;38.790;-77.084;2022-08-01T10:56:53;14;14;
45440;PMS5003;31189;38.790;-77.084;2022-08-01T10:59:27;12;12;
45440;PMS5003;31189;38.790;-77.084;2022-08-01T11:01:56;13;10;
45440;PMS5003;31189;38.790;-77.084;2022-08-01T11:04:33;15;13;
45440;PMS5003;31189;38.790;-77.084;2022-08-01T11:07:13;12;12;
45440;PMS5003;31189;38.790;-77.084;2022-08-01T11:09:45;11;11;
45440;PMS5003;31189;38.790;-77.084;2022-08-01T11:12:18;10;9;
45440;PMS5003;31189;38.790;-77.084;2022-08-01T11:15:19;14;11;
45440;PMS5003;31189;38.790;-77.084;2022-08-01T11:17:51;14;14;
45440;PMS5003;31189;38.790;-77.084;2022-08-01T11:20:20;14;11;
45440;PMS5003;31189;38.790;-77.084;2022-08-01T11:23:21;9;9;
45440;PMS5003;31189;38.790;-77.084;2022-08-01T11:26:21;9;9;
45440;PMS5003;31189;38.790;-77.084;2022-08-01T11:29:22;10;10;
45440;PMS5003;31189;38.790;-77.084;2022-08-01T11:31:49;12;12;
45440;PMS5003;31189;38.790;-77.084;2022-08-01T11:34:17;8;8;
45440;PMS5003;31189;38.790;-77.084;2022-08-01T11:36:46;13;9;
45440;PMS5003;31189;38.790;-77.084;2022-08-01T11:39:15;11;11;
45440;PMS5003;31189;38.790;-77.084;2022-08-01T11:41:44;15;9;
45440;PMS5003;31189;38.790;-77.084;2022-08-01T11:44:14;9;9;
45440;PMS5003;31189;38.790;-77.084;2022-08-01T11:46:45;10;10;
45440;PMS5003;31189;38.790;-77.084;2022-08-01T11:49:47;9;9;
45440;PMS5003;31189;38.790;-77.084;2022-08-01T11:52:17;10;8;
45440;PMS5003;31189;38.790;-77.084;2022-08-01T11:54:50;6;6;
45440;PMS5003;31189;38.790;-77.084;2022-08-01T11:57:20;6;6;
45440;PMS5003;31189;38.790;-77.084;2022-08-01T11:59:50;8;7;
45440;PMS5003;31189;38.790;-77.084;2022-08-01T12:02:20;6;6;
45440;PMS5003;31189;38.790;-77.084;2022-08-01T12:04:51;9;7;
45440;PMS5003;31189;38.790;-77.084;2022-08-01T12:07:21;8;8;
45440;PMS5003;31189;38.790;-77.084;2022-08-01T12:09:56;6;6;
45440;PMS5003;31189;38.790;-77.084;2022-08-01T12:12:26;7;6;
45440;PMS5003;31189;38.790;-77.084;2022-08-01T12:14:56;6;6;
45440;PMS5003;31189;38.790;-77.084;2022-08-01T12:17:28;9;7;
45440;PMS5003;31189;38.790;-77.084;2022-08-01T12:19:58;6;5;
45440;PMS5003;31189;38.790;-77.084;2022-08-01T12:22:26;4;4;
45440;PMS5003;31189;38.790;-77.084;2022-08-01T12:24:54;5;5;
45440;PMS5003;31189;38.790;-77.084;2022-08-01T12:27:26;5;5;
45440;PMS5003;31189;38.790;-77.084;2022-08-01T12:29:55;8;6;
45440;PMS5003;31189;38.790;-77.084;2022-08-01T12:32:25;8;5;
45440;PMS5003;31189;38.790;-77.084;2022-08-01T12:34:54;5;5;
45440;PMS5003;31189;38.790;-77.084;2022-08-01T12:37:27;8;7;
45440;PMS5003;31189;38.790;-77.084;2022-08-01T12:40:09;5;5;
45440;PMS5003;31189;38.790;-77.084;2022-08-01T12:42:39;6;5;
45440;PMS5003;31189;38.790;-77.084;2022-08-01T12:45:09;5;4;
45440;PMS5003;31189;38.790;-77.084;2022-08-01T12:47:39;7;6;
45440;PMS5003;31189;38.790;-77.084;2022-08-01T12:50:10;5;5;
45440;PMS5003;31189;38.790;-77.084;2022-08-01T12:52:41;4;4;
45440;PMS5003;31189;38.790;-77.084;2022-08-01T12:55:11;4;4;
45440;PMS5003;31189;38.790;-77.084;2022-08-01T12:57:41;3;3;
45440;PMS5003;31189;38.790;-77.084;2022-08-01T13:00:19;4;4;
45440;PMS5003;31189;38.790;-77.084;2022-08-01T13:02:50;4;4;
45440;PMS5003;31189;38.790;-77.084;2022-08-01T13:05:27;6;5;
45440;PMS5003;31189;38.790;-77.084;2022-08-01T13:08:13;4;4;
45440;PMS5003;31189;38.790;-77.084;2022-08-01T13:10:42;4;3;
45440;PMS5003;31189;38.790;-77.084;2022-08-01T13:13:12;3;3;
45440;PMS5003;31189;38.790;-77.084;2022-08-01T13:15:42;5;4;
45440;PMS5003;31189;38.790;-77.084;2022-08-01T13:18:26;4;4;
45440;PMS5003;31189;38.790;-77.084;2022-08-01T13:21:13;3;3;
45440;PMS5003;31189;38.790;-77.084;2022-08-01T13:23:42;3;3;
45440;PMS5003;31189;38.790;-77.084;2022-08-01T13:26:44;3;2;
45440;PMS5003;31189;38.790;-77.084;2022-08-01T13:29:13;3;3;
45440;PMS5003;31189;38.790;-77.084;2022-08-01T13:31:42;3;3;
45440;PMS5003;31189;38.790;-77.084;2022-08-01T13:34:11;4;3;
45440;PMS5003;31189;38.790;-77.084;2022-08-01T13:36:39;4;4;
45440;PMS5003;31189;38.790;-77.084;2022-08-01T13:39:08;5;5;
45440;PMS5003;31189;38.790;-77.084;2022-08-01T13:41:36;4;4;
45440;PMS5003;31189;38.790;-77.084;2022-08-01T13:44:04;5;4;
45440;PMS5003;31189;38.790;-77.084;2022-08-01T13:46:32;6;3;
45440;PMS5003;31189;38.790;-77.084;2022-08-01T13:49:00;5;5;
45440;PMS5003;31189;38.790;-77.084;2022-08-01T13:51:28;5;4;
45440;PMS5003;31189;38.790;-77.084;2022-08-01T13:53:57;3;3;
45440;PMS5003;31189;38.790;-77.084;2022-08-01T13:56:25;3;3;
45440;PMS5003;31189;38.790;-77.084;2022-08-01T13:58:53;6;3;
45440;PMS5003;31189;38.790;-77.084;2022-08-01T14:01:22;3;3;
45440;PMS5003;31189;38.790;-77.084;2022-08-01T14:03:51;3;3;
45440;PMS5003;31189;38.790;-77.084;2022-08-01T14:06:19;5;3;
45440;PMS5003;31189;38.790;-77.084;2022-08-01T14:08:47;4;4;
45440;PMS5003;31189;38.790;-77.084;2022-08-01T14:11:15;6;4;
45440;PMS5003;31189;38.790;-77.084;2022-08-01T14:13:43;5;5;
45440;PMS5003;31189;38.790;-77.084;2022-08-01T14:16:12;4;4;
45440;PMS5003;31189;38.790;-77.084;2022-08-01T14:18:40;4;4;
45440;PMS5003;31189;38.790;-77.084;2022-08-01T14:21:08;6;6;
45440;PMS5003;31189;38.790;-77.084;2022-08-01T14:23:37;12;5;
45440;PMS5003;31189;38.790;-77.084;2022-08-01T14:26:05;5;5;
45440;PMS5003;31189;38.790;-77.084;2022-08-01T14:28:33;5;5;
45440;PMS5003;31189;38.790;-77.084;2022-08-01T14:31:02;7;6;
45440;PMS5003;31189;38.790;-77.084;2022-08-01T14:33:30;6;6;
45440;PMS5003;31189;38.790;-77.084;2022-08-01T14:35:59;6;6;
45440;PMS5003;31189;38.790;-77.084;2022-08-01T14:38:27;6;6;
45440;PMS5003;31189;38.790;-77.084;2022-08-01T14:40:54;6;6;
45440;PMS5003;31189;38.790;-77.084;2022-08-01T14:43:22;7;5;
45440;PMS5003;31189;38.790;-77.084;2022-08-01T14:45:50;8;6;
45440;PMS5003;31189;38.790;-77.084;2022-08-01T14:48:18;6;6;
45440;PMS5003;31189;38.790;-77.084;2022-08-01T14:50:46;6;6;
45440;PMS5003;31189;38.790;-77.084;2022-08-01T14:53:14;7;6;
45440;PMS5003;31189;38.790;-77.084;2022-08-01T14:55:42;6;6;
45440;PMS5003;31189;38.790;-77.084;2022-08-01T14:58:11;6;6;
45440;PMS5003;31189;38.790;-77.084;2022-08-01T15:00:38;7;7;
45440;PMS5003;31189;38.790;-77.084;2022-08-01T15:03:07;6;6;
45440;PMS5003;31189;38.790;-77.084;2022-08-01T15:05:35;10;10;
45440;PMS5003;31189;38.790;-77.084;2022-08-01T15:08:03;7;7;
45440;PMS5003;31189;38.790;-77.084;2022-08-01T15:10:32;6;6;
45440;PMS5003;31189;38.790;-77.084;2022-08-01T15:13:01;10;7;
45440;PMS5003;31189;38.790;-77.084;2022-08-01T15:15:29;7;7;
45440;PMS5003;31189;38.790;-77.084;2022-08-01T15:17:57;8;8;
45440;PMS5003;31189;38.790;-77.084;2022-08-01T15:20:25;8;8;
45440;PMS5003;31189;38.790;-77.084;2022-08-01T15:22:53;8;8;
45440;PMS5003;31189;38.790;-77.084;2022-08-01T15:25:21;10;9;
45440;PMS5003;31189;38.790;-77.084;2022-08-01T15:27:48;8;7;
45440;PMS5003;31189;38.790;-77.084;2022-08-01T15:30:16;9;9;
45440;PMS5003;31189;38.790;-77.084;2022-08-01T15:32:44;7;7;
45440;PMS5003;31189;38.790;-77.084;2022-08-01T15:35:12;9;8;
45440;PMS5003;31189;38.790;-77.084;2022-08-01T15:37:40;10;7;
45440;PMS5003;31189;38.790;-77.084;2022-08-01T15:40:08;8;8;
45440;PMS5003;31189;38.790;-77.084;2022-08-01T15:42:37;8;8;
45440;PMS5003;31189;38.790;-77.084;2022-08-01T15:45:06;5;5;
45440;PMS5003;31189;38.790;-77.084;2022-08-01T15:47:34;7;7;
45440;PMS5003;31189;38.790;-77.084;2022-08-01T15:50:03;9;8;
45440;PMS5003;31189;38.790;-77.084;2022-08-01T15:52:31;9;9;
45440;PMS5003;31189;38.790;-77.084;2022-08-01T15:54:59;8;8;
45440;PMS5003;31189;38.790;-77.084;2022-08-01T15:57:27;10;10;
45440;PMS5003;31189;38.790;-77.084;2022-08-01T15:59:56;10;9;
45440;PMS5003;31189;38.790;-77.084;2022-08-01T16:02:24;10;7;
45440;PMS5003;31189;38.790;-77.084;2022-08-01T16:04:51;8;8;
45440;PMS5003;31189;38.790;-77.084;2022-08-01T16:07:19;10;10;
45440;PMS5003;31189;38.790;-77.084;2022-08-01T16:09:48;10;10;
45440;PMS5003;31189;38.790;-77.084;2022-08-01T16:12:16;9;8;